Vue régionale

METAR et TAF

Dimanche 14 juillet 2024 à 09h25

Visibilités horizontales observées à différents aéroports. Les observations (METAR) et prévisions aéronautiques (TAF) complètes sont disponibles en cliquant sur l’icône correspondante.

  • Luxemburg (ELLX)

    Taf: TAF ELLX 140500Z 1406/1512 24006KT CAVOK BECMG 1423/1501 04003KT=

    Metar: METAR ELLX 140650Z 17004KT 130V240 CAVOK 16/12 Q1014 NOSIG=

  • Spangdahlem (ETAD)

    Taf: TAF AMD ETAD 131800Z 1318/1420 25005KT 9999 BKN060 QNH2994INS BECMG 1402/1403 18003KT 9999 FEW010 BKN025 OVC040 QNH2994INS BECMG 1405/1406 22006KT 9999 FEW020 SCT040 BKN060 QNH2995INS BECMG 1409/1410 22006KT 9999 FEW030 SCT050 SCT200 QNH2994INS BECMG 1416/1417 24006KT 9999 FEW080 SCT100 QNH2994INS TX21/1318Z TN11/1402Z LAST NO AMDS AFT 1318=

    Metar: METAR ETAD 140655Z AUTO 20003KT 9999 BKN090 15/11 A2994 RMK AO2 SLP128 T01520110 $=

  • Metz/Nancy (LFJL)

    Taf: TAF LFJL 140500Z 1406/1506 16006KT CAVOK PROB30 TEMPO 1409/1417 23010KT=

    Metar: METAR LFJL 140700Z AUTO 22004KT 180V250 CAVOK 18/13 Q1015 NOSIG=

  • Saarbrücken/Intl (EDDR)

    Taf: TAF EDDR 140500Z 1406/1506 VRB03KT CAVOK BECMG 1407/1410 23006KT BECMG 1417/1420 VRB03KT=

    Metar: METAR EDDR 140650Z AUTO 17003KT 110V210 CAVOK 18/13 Q1015 NOSIG=

  • Hahn (EDFH)

    Taf: TAF EDFH 140500Z 1406/1506 18004KT CAVOK BECMG 1406/1409 25009KT BECMG 1417/1420 20004KT=

    Metar: METAR EDFH 140650Z 29003KT 210V350 CAVOK 17/11 Q1015=

  • Ramstein (ETAR)

    Taf: TAF ETAR 140200Z 1402/1508 18003KT 9999 SCT050 QNH2995INS BECMG 1408/1409 21010G15KT 9999 SCT050 BKN110 QNH2996INS BECMG 1415/1416 VRB06KT 9999 SCT050 QNH2995INS TX22/1412Z TN10/1402Z=

    Metar: METAR ETAR 140655Z AUTO 00000KT 9999 CLR 15/12 A2995 RMK AO2 SLP144 T01540120=

  • Nancy/Ochey (LFSO)

    Taf: TAF LFSO 140458Z 1403/1503 16003KT CAVOK BECMG 1409/1412 22010KT BECMG 1421/1423 VRB02KT=

    Metar: METAR LFSO 140700Z AUTO VRB02KT CAVOK 19/12 Q1015 NOSIG=

  • Liège Bierset (EBLG)

    Taf: TAF EBLG 140501Z 1406/1512 23007KT 9999 FEW040=

    Metar: METAR EBLG 140650Z 23006KT 170V250 CAVOK 16/11 Q1014 NOSIG=

  • Saint-Dizier (LFSI)

    Taf: TAF LFSI 140200Z 1403/1503 VRB03KT CAVOK FM140900 27005KT 9999 SCT030 SCT060 BKN300 FM141200 27005KT 9999 SCT045 BKN180 BKN250=

    Metar: METAR LFSI 140700Z AUTO VRB02KT CAVOK 17/12 Q1014=

  • Maastricht/Zuid Limburg (EHBK)

    Taf: TAF EHBK 140521Z 1406/1512 21006KT CAVOK BECMG 1411/1413 24010KT BECMG 1419/1422 18003KT=

    Metar: METAR EHBK 140655Z AUTO 20008KT 9999 NSC 16/13 Q1013 NOSIG=

  • Köln/Köln-Bonn (EDDK)

    Taf: TAF EDDK 140500Z 1406/1512 VRB03KT CAVOK BECMG 1406/1409 23007KT BECMG 1418/1421 13003KT=

    Metar: METAR EDDK 140650Z AUTO 15005KT 120V180 CAVOK 17/12 Q1014 BECMG 23007KT=

  • Charleroi (EBCI)

    Taf: TAF EBCI 140501Z 1406/1512 23007KT 9999 FEW040=

    Metar: METAR EBCI 140650Z 20006KT 170V240 CAVOK 16/11 Q1014 NOSIG=

  • Wiesbaden (ETOU)

    Taf: TAF AMD ETOU 131120Z 1311/1410 30009KT 9999 FEW050 SCT060 QNH2990INS BECMG 1310/1311 27010G15KT 9999 FEW060 QNH2986INS BECMG 1313/1314 32009KT 9999 FEW065 QNH2984INS TX23/1313Z TN12/1402Z LAST NO AMDS AFT 1311=

    Metar: METAR ETOU 140655Z AUTO M M M M M M RMK AO2 SLPNO RVRNO PWINO PNO FZRANO VISNO RWY07 CHINO RWY07 $=

  • Karlsruhe/Baden-Baden (EDSB)

    Taf: TAF EDSB 140500Z 1406/1506 21003KT CAVOK BECMG 1409/1412 27005KT BECMG 1415/1418 VRB03KT=

    Metar: METAR EDSB 140650Z 20003KT 160V260 CAVOK 17/14 Q1015=

  • Chalons/Vatry (LFOK)

    Taf: TAF LFOK 140500Z 1406/1506 20003KT CAVOK=

    Metar: METAR LFOK 140700Z AUTO 20004KT 170V230 CAVOK 17/13 Q1014 NOSIG=

  • Frankfurt/Main (EDDF)

    Taf: TAF EDDF 140500Z 1406/1512 VRB03KT CAVOK BECMG 1406/1409 22005KT BECMG 1409/1412 22010KT BECMG 1417/1420 VRB03KT BECMG 1509/1512 14006KT=

    Metar: METAR EDDF 140650Z AUTO VRB02KT 9999 ///////// 19/12 Q1014 NOSIG=

  • Brüssel (EBBR)

    Taf: TAF EBBR 140501Z 1406/1512 23007KT 9999 FEW040=

    Metar: METAR EBBR 140650Z 22006KT 180V250 CAVOK 16/11 Q1013 NOSIG=

  • Düsseldorf (EDDL)

    Taf: TAF EDDL 140500Z 1406/1512 16003KT CAVOK BECMG 1406/1409 23010KT BECMG 1418/1421 17004KT=

    Metar: METAR EDDL 140650Z AUTO 18007KT CAVOK 17/12 Q1013 BECMG 24010KT=

  • Luxeuil (LFSX)

    Taf: TAF LFSX 140410Z 1404/1503 09003KT CAVOK=

    Metar: METAR LFSX 140700Z AUTO 11005KT CAVOK 18/13 Q1015=

  • Eindhoven (EHEH)

    Taf: TAF EHEH 140527Z 1406/1512 20004KT CAVOK BECMG 1406/1408 24008KT BECMG 1418/1421 18005KT=

    Metar: METAR EHEH 140655Z AUTO 20006KT 180V240 9999 NCD 16/13 Q1012 BLU NOSIG RMK TREND REMOTE BY EHWX=

  • Niederrhein (EDLV)

    Taf: TAF EDLV 140500Z 1406/1506 17004KT CAVOK BECMG 1407/1410 23011KT BECMG 1416/1419 VRB03KT=

    Metar: METAR EDLV 140650Z 18005KT CAVOK 15/13 Q1012=

  • Dortmund/Wickede (EDLW)

    Taf: TAF EDLW 140500Z 1406/1506 16005KT CAVOK BECMG 1407/1410 23010KT BECMG 1417/1419 18005KT=

    Metar: METAR EDLW 140650Z 17007KT 130V200 CAVOK 17/12 Q1013=

  • Stuttgart/Echterdingen (EDDS)

    Taf: TAF EDDS 140500Z 1406/1506 VRB03KT CAVOK BECMG 1409/1412 32005KT BECMG 1417/1420 VRB03KT=

    Metar: METAR EDDS 140650Z AUTO VRB02KT CAVOK 18/13 Q1015 NOSIG=

  • Basel-Mühlhausen (LFSB)

    Taf: TAF LFSB 140500Z 1406/1506 VRB04KT CAVOK=

    Metar: METAR LFSB 140700Z AUTO 12005KT 090V150 CAVOK 18/13 Q1015 NOSIG=

  • Lille (LFQQ)

    Taf: TAF LFQQ 140500Z 1406/1512 VRB03KT CAVOK BECMG 1510/1512 13010KT=

    Metar: METAR LFQQ 140700Z AUTO 18003KT 120V220 CAVOK 17/13 Q1013 NOSIG=

  • Paris/Charles de Gaulle (LFPG)

    Taf: TAF LFPG 140500Z 1406/1512 10003KT CAVOK TX27/1512Z TN14/1406Z BECMG 1408/1410 20010KT BECMG 1419/1421 14005KT=

    Metar: METAR LFPG 140700Z VRB01KT CAVOK 17/13 Q1014 NOSIG=

  • Paderborn/Lippstadt (EDLP)

    Taf: TAF EDLP 140500Z 1406/1506 18003KT CAVOK BECMG 1407/1409 23008KT BECMG 1417/1419 19003KT=

    Metar: METAR EDLP 140650Z 19006KT CAVOK 15/11 Q1014=

  • Paris/Le Bourget (LFPB)

    Taf: TAF LFPB 140500Z 1406/1506 10003KT CAVOK BECMG 1408/1410 20010KT BECMG 1419/1421 14005KT=

    Metar: METAR LFPB 140700Z AUTO VRB01KT CAVOK 17/15 Q1014 NOSIG=

  • Rotterdam (EHRD)

    Taf: TAF EHRD 140436Z 1406/1512 21009KT 9999 SCT025 BECMG 1407/1410 24015KT BECMG 1416/1419 23007KT=

    Metar: METAR EHRD 140655Z AUTO 23009KT 180V270 9999 SCT015 17/14 Q1011 NOSIG=

  • Zürich/Kloten (LSZH)

    Taf: TAF LSZH 140525Z 1406/1512 VRB02KT CAVOK TX25/1415Z TN14/1406Z TN13/1504Z TEMPO 1407/1413 9999 FEW035 PROB40 1502/1505 9999 MIFG NSC=

    Metar: METAR LSZH 140650Z VRB01KT 9999 FEW012 17/13 Q1016 NOSIG=

  • Oostende/Intl (EBOS)

    Taf: TAF EBOS 140501Z 1406/1512 21008KT 9999 FEW030 TEMPO 1408/1418 28011KT=

    Metar: METAR EBOS 140650Z 23008KT 8000 NSC 16/14 Q1013 NOSIG=

  • Paris/Orly (LFPO)

    Taf: TAF LFPO 140500Z 1406/1512 15003KT CAVOK BECMG 1406/1408 21005KT BECMG 1501/1503 11005KT PROB40 TEMPO 1510/1512 25015G25KT 2500 -TSRA SCT070CB=

    Metar: METAR LFPO 140700Z VRB02KT CAVOK 17/13 Q1014 NOSIG=

  • Beauvais (LFOB)

    Taf: TAF LFOB 140500Z 1406/1506 23003KT 0500 FG VV/// BECMG 1406/1408 CAVOK=

    Metar: METAR LFOB 140700Z AUTO VRB01KT 4300 0900 R30/0900D R12/P5000 BCFG VV/// 13/13 Q1014 BECMG CAVOK=

  • Münster/Intl (EDDG)

    Taf: TAF EDDG 140500Z 1406/1506 17004KT CAVOK BECMG 1406/1409 22010KT BECMG 1418/1421 19003KT=

    Metar: METAR EDDG 140650Z AUTO 17005KT 120V210 CAVOK 17/12 Q1013 BECMG 22010KT=

  • Illesheim (ETIK)

    Taf: nil

    Metar: METAR ETIK 140655Z AUTO 00000KT 9999 CLR 19/12 A2997 RMK AO2 SLP147 T01910124 $=

  • Duebendorf (LSMD)

    Taf: TAF LSMD 140500Z NIL=

    Metar: METAR LSMD 140650Z AUTO 00000KT 9999NDV NCD 17/14 Q1016 RMK=

  • Villacoublay (LFPV)

    Taf: TAF LFPV 140200Z 1403/1503 13003KT CAVOK TX24/1415Z TN13/1405Z PROB30 TEMPO 1403/1408 4000 BR SCT004=

    Metar: METAR LFPV 140700Z AUTO VRB03KT CAVOK 17/13 Q1014 TEMPO 4000 BR=

  • Payerne (LSMP)

    Taf: TAF LSMP 140525Z 1406/1512 VRB02KT CAVOK=

    Metar: METAR LSMP 140650Z AUTO VRB01KT 9999NDV NCD 16/12 Q1016 RMK=

  • Amsterdam/Schipol (EHAM)

    Taf: TAF EHAM 140436Z 1406/1512 21010KT 9999 SCT025 BECMG 1407/1410 24016KT BECMG 1416/1419 23007KT=

    Metar: METAR EHAM 140655Z 22012KT 9999 FEW011 17/14 Q1011 NOSIG=

  • Emmen (LSME)

    Taf: TAF LSME 140500Z NIL=

    Metar: METAR LSME 140650Z AUTO 00000KT 9999NDV NCD 17/14 Q1016 RMK=

  • Friedrichshafen (EDNY)

    Taf: TAF EDNY 140500Z 1406/1415 VRB03KT CAVOK BECMG 1409/1411 24005KT=

    Metar: METAR EDNY 140650Z 11003KT 070V170 CAVOK 17/15 Q1016=

  • Alpnach (LSMA)

    Taf: TAF LSMA 140500Z NIL=

    Metar: METAR LSMA 140650Z AUTO VRB02KT 9999NDV NCD 16/13 Q1016 RMK=

  • Meiringen (LSMM)

    Taf: TAF LSMM 140500Z NIL=

    Metar: METAR LSMM 140650Z AUTO VRB01KT 9999NDV NCD 15/12 Q1016 RMK=

  • Nürnberg (EDDN)

    Taf: TAF EDDN 140500Z 1406/1506 12004KT 9999 FEW045 BECMG 1408/1410 27006KT BECMG 1418/1420 10004KT=

    Metar: METAR EDDN 140650Z AUTO VRB03KT CAVOK 19/13 Q1015 NOSIG=

  • Rouen (LFOP)

    Taf: TAF LFOP 140500Z 1406/1415 VRB02KT 0500 FG VV/// BECMG 1406/1409 CAVOK=

    Metar: METAR LFOP 140700Z AUTO VRB01KT CAVOK 16/13 Q1014 NOSIG=

  • Evreux (LFOE)

    Taf: TAF AMD LFOE 140501Z 1405/1503 13003KT CAVOK BECMG 1411/1413 24008KT=

    Metar: METAR LFOE 140700Z AUTO VRB03KT CAVOK 16/13 Q1014 NOSIG=

  • Erfurt/Bindersleben (EDDE)

    Taf: TAF EDDE 140500Z 1406/1506 23006KT CAVOK=

    Metar: METAR EDDE 140650Z AUTO 23003KT 180V270 CAVOK 18/13 Q1014 NOSIG=